Time;durP1;ratioP1;P1;durP2;ratioP2;P2;SDS_P1;SDS_P2;PMS_P1;PMS_P2;Temp;Humidity;BMP_temperature;BMP_pressure;BME280_temperature;BME280_humidity;BME280_pressure;Samples;Min_cycle;Max_cycle;Signal;HPM_P1;HPM_P2
2022/09/18 00:01:30;;;;;;;3.15;1.02;;;;;;;10.61;100.00;101341.28;4956050;28;20051;-88
2022/09/18 00:04:00;;;;;;;2.30;0.90;;;;;;;10.67;100.00;101345.50;4973654;28;20058;-88
2022/09/18 00:06:32;;;;;;;4.55;1.58;;;;;;;10.64;100.00;101349.06;4954019;28;20051;-88
2022/09/18 00:09:00;;;;;;;2.05;1.00;;;;;;;10.61;100.00;101341.28;4950480;28;20077;-88
2022/09/18 00:11:32;;;;;;;3.00;0.95;;;;;;;10.63;100.00;101341.25;4954604;28;20134;-89
2022/09/18 00:13:59;;;;;;;3.17;1.00;;;;;;;10.71;100.00;101334.06;4951121;29;20482;-88
2022/09/18 00:16:25;;;;;;;6.20;1.15;;;;;;;10.70;100.00;101339.34;4973883;28;20453;-89
2022/09/18 00:18:52;;;;;;;2.70;1.10;;;;;;;10.53;100.00;101316.22;4955069;28;20133;-89
2022/09/18 00:21:24;;;;;;;3.63;1.30;;;;;;;10.28;100.00;101277.59;4956526;28;20054;-89
2022/09/18 00:23:54;;;;;;;2.20;1.00;;;;;;;10.60;100.00;101336.94;4956396;28;20488;-89
2022/09/18 00:26:21;;;;;;;3.55;0.98;;;;;;;10.59;100.00;101330.00;4956860;28;20051;-89
2022/09/18 00:28:48;;;;;;;2.15;0.95;;;;;;;10.25;100.00;101269.84;4952784;28;20113;-89
2022/09/18 00:31:24;;;;;;;2.58;1.02;;;;;;;10.40;100.00;101306.09;4969318;28;20046;-89
2022/09/18 00:33:51;;;;;;;3.05;0.85;;;;;;;10.76;100.00;101326.03;4956771;28;20105;-88
2022/09/18 00:36:19;;;;;;;1.52;0.90;;;;;;;10.78;100.00;101313.75;4956396;28;20058;-88
2022/09/18 00:38:46;;;;;;;2.70;0.98;;;;;;;10.76;100.00;101308.56;4972421;28;20175;-89
2022/09/18 00:41:22;;;;;;;2.70;1.00;;;;;;;10.84;100.00;101305.72;4956314;28;20051;-88
2022/09/18 00:44:13;;;;;;;3.03;1.00;;;;;;;10.93;100.00;101334.28;4974293;28;20210;-89
2022/09/18 00:46:43;;;;;;;3.83;1.10;;;;;;;10.88;100.00;101323.06;4961166;28;20058;-89
2022/09/18 00:49:12;;;;;;;1.52;0.90;;;;;;;10.87;100.00;101315.25;4969042;28;20471;-89
2022/09/18 00:51:41;;;;;;;2.83;1.00;;;;;;;10.85;100.00;101324.91;4955695;28;20055;-89
2022/09/18 00:54:37;;;;;;;1.77;0.85;;;;;;;10.86;100.00;101324.88;4956225;28;20448;-89
2022/09/18 00:57:09;;;;;;;2.88;0.98;;;;;;;10.76;100.00;101315.56;4963612;28;20449;-89
2022/09/18 00:59:36;;;;;;;2.40;1.02;;;;;;;10.68;100.00;101307.94;4955646;28;20047;-89
2022/09/18 01:02:04;;;;;;;2.40;1.00;;;;;;;10.67;100.00;101302.75;4947679;29;20627;-89
2022/09/18 01:04:31;;;;;;;2.50;0.80;;;;;;;10.73;100.00;101313.03;4937543;28;20058;-89
2022/09/18 01:07:34;;;;;;;3.28;1.00;;;;;;;10.89;100.00;101321.28;4957300;28;20489;-89
2022/09/18 01:10:28;;;;;;;2.05;1.17;;;;;;;10.90;100.00;101326.50;4968867;28;20101;-88
2022/09/18 01:13:01;;;;;;;3.45;0.90;;;;;;;10.81;100.00;101322.38;4980709;28;20054;-89
2022/09/18 01:15:38;;;;;;;4.63;1.63;;;;;;;10.88;100.00;101323.06;4973989;28;20464;-89
2022/09/18 01:18:20;;;;;;;1.77;0.90;;;;;;;10.93;100.00;101321.16;4959669;28;20110;-88
2022/09/18 01:20:59;;;;;;;2.45;1.02;;;;;;;10.86;100.00;101324.03;4960481;28;20055;-89
2022/09/18 01:23:59;;;;;;;1.70;1.02;;;;;;;10.59;100.00;101272.41;4952096;28;20054;-88
2022/09/18 01:26:47;;;;;;;2.65;0.93;;;;;;;10.99;100.00;101320.13;4976187;28;20057;-89
2022/09/18 01:29:25;;;;;;;3.85;1.02;;;;;;;11.03;100.00;101329.63;4947760;28;20405;-89
2022/09/18 01:32:00;;;;;;;2.33;0.80;;;;;;;10.97;100.00;101327.19;4975770;28;20105;-89
2022/09/18 01:34:36;;;;;;;3.67;0.98;;;;;;;10.85;100.00;101324.91;4950321;28;20054;-89
2022/09/18 01:37:20;;;;;;;3.50;1.48;;;;;;;10.75;100.00;101301.63;4960010;28;20059;-89
2022/09/18 01:39:56;;;;;;;1.45;0.80;;;;;;;10.99;100.00;101314.88;4956398;28;20062;-89
2022/09/18 01:42:25;;;;;;;2.83;1.00;;;;;;;10.99;100.00;101320.97;4959802;28;20462;-88
2022/09/18 01:44:56;;;;;;;1.27;0.90;;;;;;;11.05;100.00;101314.72;4959843;28;20082;-89
2022/09/18 01:47:30;;;;;;;3.97;1.00;;;;;;;10.92;100.00;101300.25;4952206;28;20058;-88
2022/09/18 01:49:59;;;;;;;2.30;0.93;;;;;;;11.05;100.00;101301.63;4946767;28;20121;-88
2022/09/18 01:52:36;;;;;;;3.20;0.90;;;;;;;11.11;100.00;101305.81;4959497;28;20055;-89
2022/09/18 01:55:11;;;;;;;2.20;0.98;;;;;;;10.93;100.00;101294.13;4959260;28;20102;-89
2022/09/18 01:57:48;;;;;;;3.25;1.10;;;;;;;10.98;100.00;101307.94;4969706;28;20102;-89
2022/09/18 02:00:16;;;;;;;3.10;1.08;;;;;;;11.11;100.00;101309.28;4947748;28;20051;-89
2022/09/18 02:03:00;;;;;;;3.70;0.93;;;;;;;10.91;100.00;101270.59;4960001;28;20110;-89
2022/09/18 02:05:39;;;;;;;1.58;0.80;;;;;;;10.94;100.00;101280.97;4958575;28;20077;-89
2022/09/18 02:08:32;;;;;;;2.40;0.90;;;;;;;11.10;100.00;101304.97;4951343;28;20059;-87
2022/09/18 02:11:07;;;;;;;3.65;1.00;;;;;;;11.11;100.00;101300.56;4956139;28;20583;-89
2022/09/18 02:14:00;;;;;;;2.05;0.90;;;;;;;11.00;100.00;101279.94;4965252;28;20058;-89
2022/09/18 02:16:33;;;;;;;3.33;1.10;;;;;;;11.13;100.00;101281.25;4952285;28;20058;-89
2022/09/18 02:19:04;;;;;;;;;;;;;;;11.20;100.00;101295.88;4958119;28;20051;-87
2022/09/18 02:21:31;;;;;;;1.67;0.80;;;;;;;11.05;100.00;101274.53;4958890;28;19933;-87
2022/09/18 02:24:03;;;;;;;1.48;1.00;;;;;;;11.08;100.00;101275.28;4958873;28;20062;-87
2022/09/18 02:26:33;;;;;;;1.25;0.73;;;;;;;11.16;100.00;101273.31;4954139;29;20106;-89
2022/09/18 02:29:02;;;;;;;2.30;0.80;;;;;;;11.18;100.00;101273.25;4972143;28;20448;-88
2022/09/18 02:31:29;;;;;;;1.00;0.75;;;;;;;11.10;100.00;101259.53;4959314;28;20167;-88
2022/09/18 02:33:55;;;;;;;2.67;1.00;;;;;;;11.13;100.00;101262.91;4959038;28;20556;-87
2022/09/18 02:36:56;;;;;;;3.35;0.98;;;;;;;11.30;100.00;101279.88;4975956;28;20449;-88
2022/09/18 02:39:57;;;;;;;2.28;1.00;;;;;;;11.23;100.00;101268.72;4944384;28;20607;-88
2022/09/18 02:42:39;;;;;;;2.78;1.00;;;;;;;11.33;100.00;101269.28;4949393;28;20409;-88
2022/09/18 02:45:06;;;;;;;2.13;1.02;;;;;;;11.21;100.00;101273.16;4958939;28;20512;-88
2022/09/18 02:48:01;;;;;;;6.57;1.00;;;;;;;11.09;100.00;101271.78;4957796;28;20102;-88
2022/09/18 02:50:48;;;;;;;4.47;1.00;;;;;;;11.16;100.00;101270.69;4958051;28;20097;-89
2022/09/18 02:53:28;;;;;;;4.82;1.27;;;;;;;11.00;100.00;101251.09;4938537;28;20050;-87
2022/09/18 02:56:05;;;;;;;1.65;0.90;;;;;;;11.20;100.00;101264.44;4957482;28;20062;-87
2022/09/18 02:59:00;;;;;;;1.30;0.85;;;;;;;11.25;100.00;101277.41;4944843;28;20109;-86
2022/09/18 03:01:28;;;;;;;2.55;1.10;;;;;;;11.16;100.00;101261.97;4958473;28;20047;-87
2022/09/18 03:04:00;;;;;;;4.82;1.05;;;;;;;11.28;100.00;101265.94;4958407;28;20059;-87
2022/09/18 03:06:27;;;;;;;2.53;1.10;;;;;;;11.37;100.00;101279.63;4956466;28;20094;-86
2022/09/18 03:08:53;;;;;;;3.22;1.13;;;;;;;11.04;100.00;101223.88;4952075;28;20127;-86
2022/09/18 03:11:20;;;;;;;2.47;1.00;;;;;;;11.33;100.00;101258.78;4944594;28;20098;-86
2022/09/18 03:13:47;;;;;;;1.58;0.90;;;;;;;11.46;100.00;101256.66;4958417;28;20053;-87
2022/09/18 03:16:14;;;;;;;2.08;1.00;;;;;;;11.53;100.00;101248.50;4966166;28;20120;-87
2022/09/18 03:18:40;;;;;;;3.25;1.20;;;;;;;11.11;100.00;101204.44;4948633;28;20054;-88
2022/09/18 03:21:07;;;;;;;1.52;1.00;;;;;;;11.28;100.00;101232.75;4948081;28;20097;-88
2022/09/18 03:23:34;;;;;;;1.20;0.90;;;;;;;11.51;100.00;101268.69;4973270;28;20390;-87
2022/09/18 03:26:00;;;;;;;6.32;1.20;;;;;;;11.50;100.00;101279.22;4975060;28;20109;-87
2022/09/18 03:28:30;;;;;;;2.78;1.10;;;;;;;11.37;100.00;101258.66;4956740;28;20047;-88
2022/09/18 03:30:56;;;;;;;0.90;0.80;;;;;;;11.20;100.00;101221.63;4964803;28;20050;-88
2022/09/18 03:33:23;;;;;;;2.45;1.10;;;;;;;11.29;100.00;101223.09;4954369;29;20517;-88
2022/09/18 03:35:50;;;;;;;2.50;1.00;;;;;;;11.51;100.00;101254.69;4956871;28;20101;-88
2022/09/18 03:38:17;;;;;;;1.55;0.90;;;;;;;11.44;100.00;101253.19;4957025;28;20051;-86
2022/09/18 03:40:44;;;;;;;5.10;1.10;;;;;;;11.44;100.00;101267.19;4957556;28;20113;-87
2022/09/18 03:43:13;;;;;;;3.90;1.05;;;;;;;11.33;100.00;101250.91;4975050;28;20054;-86
2022/09/18 03:45:40;;;;;;;5.05;1.00;;;;;;;11.45;100.00;101268.03;4972222;28;20066;-86
2022/09/18 03:48:06;;;;;;;3.58;1.20;;;;;;;11.40;100.00;101265.53;4939278;28;20102;-87
2022/09/18 03:50:33;;;;;;;5.30;1.10;;;;;;;11.42;100.00;101263.75;4951841;28;20378;-88
2022/09/18 03:53:00;;;;;;;4.60;1.10;;;;;;;11.52;100.00;101264.28;4974127;28;20065;-87
2022/09/18 03:55:26;;;;;;;6.97;1.85;;;;;;;11.55;100.00;101269.44;4955076;28;20125;-87
2022/09/18 03:57:53;;;;;;;1.90;0.90;;;;;;;11.31;100.00;101252.75;4956123;28;20046;-87
2022/09/18 04:00:20;;;;;;;5.55;1.30;;;;;;;11.43;100.00;101262.84;4957782;28;20047;-88
2022/09/18 04:02:47;;;;;;;1.98;1.00;;;;;;;11.53;100.00;101258.16;4950204;28;20062;-88
2022/09/18 04:05:14;;;;;;;2.50;1.10;;;;;;;11.37;100.00;101235.06;4966024;28;20055;-89
2022/09/18 04:07:41;;;;;;;6.03;1.30;;;;;;;11.07;100.00;101264.88;4979277;28;20058;-88
2022/09/18 04:10:08;;;;;;;2.08;1.05;;;;;;;10.99;100.00;101244.13;4957570;28;20617;-88
2022/09/18 04:12:34;;;;;;;2.47;1.10;;;;;;;11.07;100.00;101249.16;4957393;28;20094;-87
2022/09/18 04:15:01;;;;;;;1.85;1.00;;;;;;;10.93;100.00;101226.00;4956972;28;20121;-86
2022/09/18 04:17:28;;;;;;;3.67;1.10;;;;;;;11.06;100.00;101255.28;4954662;28;20114;-87
2022/09/18 04:19:54;;;;;;;4.32;1.00;;;;;;;10.95;100.00;101243.38;4950785;28;20062;-88
2022/09/18 04:22:21;;;;;;;2.67;1.10;;;;;;;10.85;100.00;101239.31;4944184;28;20460;-88
2022/09/18 04:24:49;;;;;;;2.88;1.00;;;;;;;10.95;100.00;101248.63;4957238;28;20054;-87
2022/09/18 04:27:16;;;;;;;2.80;1.27;;;;;;;10.85;100.00;101235.84;4951295;28;20047;-88
2022/09/18 04:29:43;;;;;;;3.83;1.20;;;;;;;10.83;100.00;101251.63;4948347;28;20050;-88
2022/09/18 04:32:10;;;;;;;2.35;1.08;;;;;;;10.54;100.00;101211.47;4953735;28;20494;-87
2022/09/18 04:34:36;;;;;;;5.00;1.15;;;;;;;10.75;100.00;101240.53;4936694;29;20051;-87
2022/09/18 04:37:03;;;;;;;2.72;1.10;;;;;;;10.77;100.00;101244.81;4952138;28;20046;-87
2022/09/18 04:39:35;;;;;;;2.00;1.00;;;;;;;10.79;100.00;101253.47;4973585;28;20242;-87
2022/09/18 04:42:03;;;;;;;3.28;1.15;;;;;;;11.02;100.00;101278.13;4956077;28;20046;-87
2022/09/18 04:44:30;;;;;;;3.83;1.10;;;;;;;10.93;100.00;101288.88;4973885;28;20051;-86
2022/09/18 04:46:56;;;;;;;1.15;0.80;;;;;;;11.10;100.00;101281.38;4957072;28;20076;-88
2022/09/18 04:49:23;;;;;;;2.78;0.90;;;;;;;10.89;100.00;101275.03;4946155;28;20378;-87
2022/09/18 04:51:50;;;;;;;2.42;0.85;;;;;;;10.67;100.00;101245.97;4954722;28;20047;-87
2022/09/18 04:54:17;;;;;;;2.55;0.90;;;;;;;10.75;100.00;101266.72;4939549;28;20568;-87
2022/09/18 04:56:43;;;;;;;1.38;0.77;;;;;;;10.93;100.00;101294.97;4956540;28;20054;-87
2022/09/18 04:59:10;;;;;;;3.40;1.00;;;;;;;10.81;100.00;101270.00;4952379;28;20055;-88
2022/09/18 05:01:37;;;;;;;2.53;1.02;;;;;;;10.98;100.00;101287.84;4970001;28;20098;-88
2022/09/18 05:04:03;;;;;;;2.25;1.00;;;;;;;10.62;100.00;101288.03;4966833;28;20057;-88
2022/09/18 05:06:30;;;;;;;1.55;1.00;;;;;;;10.73;100.00;101290.34;4956689;28;20481;-88
2022/09/18 05:08:57;;;;;;;1.58;0.90;;;;;;;10.90;100.00;101299.44;4953997;28;20054;-88
2022/09/18 05:11:24;;;;;;;1.38;0.85;;;;;;;10.94;100.00;101301.06;4956044;28;20054;-88
2022/09/18 05:13:55;;;;;;;2.42;0.80;;;;;;;10.75;100.00;101279.81;4955988;28;20489;-87
2022/09/18 05:16:23;;;;;;;3.03;0.80;;;;;;;10.95;100.00;101313.28;4943496;29;20114;-88
2022/09/18 05:18:51;;;;;;;1.20;0.80;;;;;;;10.95;100.00;101308.03;4970911;28;20061;-88
2022/09/18 05:21:18;;;;;;;2.47;0.90;;;;;;;11.00;100.00;101306.13;4950491;28;20051;-88
2022/09/18 05:23:45;;;;;;;1.65;0.80;;;;;;;11.05;100.00;101313.84;4942540;28;20485;-87
2022/09/18 05:26:13;;;;;;;1.15;0.80;;;;;;;11.19;100.00;101323.00;4955957;28;20058;-88
2022/09/18 05:28:40;;;;;;;1.45;0.80;;;;;;;11.03;100.00;101279.84;4952356;28;20109;-87
2022/09/18 05:31:07;;;;;;;2.90;0.85;;;;;;;11.09;100.00;101318.09;4943801;28;20047;-88
2022/09/18 05:33:35;;;;;;;1.85;0.80;;;;;;;11.06;100.00;101302.47;4942912;28;20437;-88
2022/09/18 05:36:04;;;;;;;2.60;0.90;;;;;;;10.90;100.00;101310.78;4966046;28;20462;-88
2022/09/18 05:38:31;;;;;;;1.75;0.88;;;;;;;11.06;100.00;101319.03;4965293;28;20059;-88
2022/09/18 05:41:00;;;;;;;1.40;0.90;;;;;;;11.16;100.00;101304.75;4966603;28;20055;-88
2022/09/18 05:43:28;;;;;;;0.90;0.70;;;;;;;11.03;100.00;101290.31;4965880;28;20050;-89
2022/09/18 05:45:55;;;;;;;2.72;0.85;;;;;;;11.05;100.00;101291.13;4955846;28;20058;-89
2022/09/18 05:48:23;;;;;;;1.85;1.25;;;;;;;11.30;100.00;101320.06;4952493;28;20054;-88
2022/09/18 05:50:50;;;;;;;1.80;0.98;;;;;;;11.15;100.00;101317.91;4949412;28;20058;-88
2022/09/18 05:53:19;;;;;;;2.25;0.85;;;;;;;10.88;100.00;101303.88;4948957;28;20105;-89
2022/09/18 05:55:46;;;;;;;2.60;1.00;;;;;;;11.18;100.00;101325.69;4948948;28;20102;-88
2022/09/18 05:58:16;;;;;;;2.13;0.93;;;;;;;11.01;100.00;101292.09;4956708;28;20111;-88
2022/09/18 06:00:44;;;;;;;2.65;0.80;;;;;;;11.01;100.00;101292.09;4959323;28;20064;-88
2022/09/18 06:03:15;;;;;;;2.72;1.00;;;;;;;10.70;100.00;101266.00;4966931;28;20054;-88
2022/09/18 06:05:49;;;;;;;1.55;0.82;;;;;;;10.89;100.00;101267.16;4961600;28;20050;-89
2022/09/18 06:08:16;;;;;;;2.42;0.93;;;;;;;10.76;100.00;101281.53;4971005;28;20491;-87
2022/09/18 06:10:43;;;;;;;3.95;1.23;;;;;;;11.14;100.00;101324.06;4959189;28;20409;-89
2022/09/18 06:13:14;;;;;;;1.33;0.88;;;;;;;11.20;100.00;101342.22;4961753;28;20054;-89
2022/09/18 06:15:50;;;;;;;2.83;0.90;;;;;;;11.08;100.00;101308.50;4946117;29;20058;-87
2022/09/18 06:18:18;;;;;;;1.52;0.82;;;;;;;11.31;100.00;101347.13;4954272;28;20470;-87
2022/09/18 06:20:53;;;;;;;3.50;0.90;;;;;;;11.29;100.00;101331.44;4958673;28;20046;-88
2022/09/18 06:23:24;;;;;;;2.25;0.95;;;;;;;11.04;100.00;101312.13;4975073;28;20505;-88
2022/09/18 06:26:02;;;;;;;2.58;0.90;;;;;;;10.87;100.00;101297.78;4959724;28;20050;-88
2022/09/18 06:28:31;;;;;;;4.07;0.95;;;;;;;11.11;100.00;101332.84;4964717;28;20490;-87
2022/09/18 06:30:58;;;;;;;4.03;1.10;;;;;;;10.85;100.00;101312.66;4957484;28;20054;-87
2022/09/18 06:33:25;;;;;;;2.53;1.02;;;;;;;11.00;100.00;101304.38;4970733;28;20405;-86
2022/09/18 06:35:52;;;;;;;2.75;0.90;;;;;;;11.11;100.00;101311.03;4962319;28;20058;-87
2022/09/18 06:38:18;;;;;;;1.75;0.90;;;;;;;11.20;100.00;101311.59;4954883;28;20059;-86
2022/09/18 06:40:49;;;;;;;4.10;1.13;;;;;;;11.34;100.00;101339.16;4974768;28;20058;-87
2022/09/18 06:43:17;;;;;;;1.92;0.80;;;;;;;11.49;100.00;101351.81;4971665;28;20070;-87
2022/09/18 06:45:52;;;;;;;4.47;0.90;;;;;;;11.53;100.00;101355.19;4957999;28;20520;-87
2022/09/18 06:48:19;;;;;;;3.53;0.95;;;;;;;11.17;100.00;101310.84;4958677;28;20528;-87
2022/09/18 06:50:53;;;;;;;4.55;1.05;;;;;;;11.12;100.00;101304.88;4960674;28;20053;-87
2022/09/18 06:53:21;;;;;;;3.95;0.80;;;;;;;11.31;100.00;101337.47;4975240;28;20461;-88
2022/09/18 06:55:49;;;;;;;2.05;0.90;;;;;;;11.34;100.00;101339.16;4958405;28;20285;-88
2022/09/18 06:58:17;;;;;;;1.15;0.70;;;;;;;11.54;100.00;101375.25;4951874;28;20057;-87
2022/09/18 07:00:44;;;;;;;2.05;0.82;;;;;;;11.25;100.00;101332.44;4960182;28;20481;-88
2022/09/18 07:03:11;;;;;;;3.42;1.15;;;;;;;11.24;100.00;101312.38;4959783;28;20058;-87
2022/09/18 07:05:41;;;;;;;4.65;0.77;;;;;;;11.53;100.00;101382.25;4959427;28;20374;-87
2022/09/18 07:08:09;;;;;;;2.80;0.80;;;;;;;11.61;100.00;101392.50;4968689;28;20057;-86
2022/09/18 07:10:36;;;;;;;4.13;0.90;;;;;;;11.39;100.00;101377.44;4974287;28;20417;-87
2022/09/18 07:13:04;;;;;;;3.00;0.90;;;;;;;11.34;100.00;101360.13;4974202;28;20057;-87
2022/09/18 07:15:32;;;;;;;2.08;1.00;;;;;;;11.16;100.00;101327.50;4959986;28;20051;-87
2022/09/18 07:18:01;;;;;;;2.95;1.00;;;;;;;11.14;100.00;101337.16;4954570;28;20762;-87
2022/09/18 07:20:28;;;;;;;2.42;0.90;;;;;;;11.60;100.00;101398.69;4949012;28;20059;-88
2022/09/18 07:23:00;;;;;;;2.75;0.80;;;;;;;11.33;100.00;101335.69;4964582;28;20053;-87
2022/09/18 07:25:30;;;;;;;2.65;0.80;;;;;;;11.79;100.00;101383.19;4954580;28;20787;-87
2022/09/18 07:28:06;;;;;;;3.47;1.00;;;;;;;11.50;100.00;101329.06;4952963;28;20057;-89
2022/09/18 07:30:37;;;;;;;3.53;1.00;;;;;;;11.02;100.00;101275.50;4976563;28;20078;-88
2022/09/18 07:33:06;;;;;;;3.92;0.95;;;;;;;11.29;100.00;101341.91;4959960;28;20422;-88
2022/09/18 07:35:33;;;;;;;5.68;1.15;;;;;;;11.33;100.00;101409.09;4957197;28;20042;-88
2022/09/18 07:38:02;;;;;;;2.75;0.90;;;;;;;10.70;100.00;101305.28;4958150;28;20601;-88
2022/09/18 07:40:30;;;;;;;2.67;0.90;;;;;;;10.82;100.00;101363.41;4956007;29;20062;-88
2022/09/18 07:43:02;;;;;;;7.38;1.52;;;;;;;10.92;100.00;101357.91;4972704;28;20050;-89
2022/09/18 07:45:29;;;;;;;3.38;1.10;;;;;;;10.94;100.00;101385.78;4959898;28;20054;-92
2022/09/18 07:47:56;;;;;;;6.22;1.20;;;;;;;11.09;100.00;101407.22;4959383;28;20078;-90
2022/09/18 07:50:23;;;;;;;5.00;1.45;;;;;;;11.10;100.00;101427.25;4959094;28;20058;-91
2022/09/18 07:53:04;;;;;;;6.47;1.27;;;;;;;10.85;100.00;101398.28;4954699;28;20043;-89
2022/09/18 07:55:33;;;;;;;5.10;1.23;;;;;;;11.08;100.00;101390.59;4959734;28;20493;-92
2022/09/18 07:58:03;;;;;;;5.90;1.30;;;;;;;11.09;100.00;101431.63;4972370;28;20055;-91
2022/09/18 08:00:33;;;;;;;2.92;1.30;;;;;;;10.78;100.00;101364.41;4974977;28;20066;-90
2022/09/18 08:03:37;;;;;;;5.60;1.42;;;;;;;10.54;100.00;101339.75;4957034;28;20076;-91
2022/09/18 08:06:10;;;;;;;4.53;1.23;;;;;;;10.66;100.00;101337.69;4951621;28;20051;-91
2022/09/18 08:08:40;;;;;;;2.63;1.15;;;;;;;11.08;100.00;101395.00;4953045;28;20055;-90
2022/09/18 08:11:07;;;;;;;3.08;1.10;;;;;;;10.91;100.00;101377.16;4961480;28;20050;-89
2022/09/18 08:13:37;;;;;;;2.22;1.02;;;;;;;10.81;100.00;101376.53;4961711;28;20059;-89
2022/09/18 08:16:05;;;;;;;3.35;1.23;;;;;;;10.99;100.00;101402.19;4962997;28;20046;-90
2022/09/18 08:18:35;;;;;;;3.95;1.23;;;;;;;11.18;100.00;101438.38;4954112;28;20094;-89
2022/09/18 08:21:01;;;;;;;6.60;1.73;;;;;;;11.01;100.00;101383.81;4953275;28;20055;-90
2022/09/18 08:23:37;;;;;;;5.75;1.10;;;;;;;11.00;100.00;101410.94;4963076;28;20054;-90
2022/09/18 08:26:04;;;;;;;4.18;0.90;;;;;;;11.28;100.00;101438.97;4978538;28;20054;-89
2022/09/18 08:28:34;;;;;;;3.55;1.20;;;;;;;10.75;100.00;101350.53;4972871;28;20054;-91
2022/09/18 08:31:01;;;;;;;4.35;1.10;;;;;;;11.09;100.00;101404.59;4961804;28;20058;-91
2022/09/18 08:33:31;;;;;;;5.78;1.77;;;;;;;10.76;100.00;101353.09;4961520;28;20078;-90
2022/09/18 08:35:58;;;;;;;6.85;1.38;;;;;;;10.15;100.00;101290.19;4946425;29;20480;-92
2022/09/18 08:38:26;;;;;;;4.38;1.38;;;;;;;10.22;100.00;101311.81;4951676;28;20516;-91
2022/09/18 08:44:48;;;;;;;4.53;1.30;;;;;;;10.92;100.00;101421.63;4970325;28;20049;-91
2022/09/18 08:47:23;;;;;;;6.53;1.58;;;;;;;10.64;100.00;101361.28;4960064;28;20543;-90
2022/09/18 08:50:14;;;;;;;6.32;1.35;;;;;;;10.80;100.00;101369.56;4976447;28;20137;-92
2022/09/18 08:52:49;;;;;;;2.75;1.02;;;;;;;10.93;100.00;101381.44;4965374;28;20046;-92
2022/09/18 08:55:46;;;;;;;6.28;1.40;;;;;;;11.32;100.00;101475.53;4950750;28;20053;-90
2022/09/18 08:58:23;;;;;;;6.13;1.65;;;;;;;11.27;100.00;101439.88;4954530;28;20066;-89
2022/09/18 09:00:57;;;;;;;5.05;1.27;;;;;;;11.54;100.00;101475.78;4959066;28;20070;-89
2022/09/18 09:03:46;;;;;;;4.05;1.20;;;;;;;11.56;100.00;101468.72;4952321;28;20046;-88
2022/09/18 09:06:51;;;;;;;5.78;1.30;;;;;;;11.53;100.00;101479.31;4976359;28;20062;-89
2022/09/18 09:09:44;;;;;;;4.45;1.30;;;;;;;11.57;100.00;101480.91;4958864;28;20050;-88
2022/09/18 09:12:49;;;;;;;6.93;1.30;;;;;;;11.89;100.00;101486.09;4956695;28;20050;-89
2022/09/18 09:15:34;;;;;;;8.27;2.33;;;;;;;11.91;100.00;101489.56;4971229;28;20054;-89
2022/09/18 09:18:30;;;;;;;4.18;1.30;;;;;;;12.11;100.00;101497.69;4952768;28;20043;-90
2022/09/18 09:21:15;;;;;;;5.72;1.40;;;;;;;11.67;100.00;101462.28;4969968;28;20470;-88
2022/09/18 09:23:45;;;;;;;5.85;1.48;;;;;;;12.17;100.00;101501.03;4948164;28;20054;-91
2022/09/18 09:26:16;;;;;;;3.50;1.02;;;;;;;12.06;100.00;101514.50;4977259;28;20043;-89
2022/09/18 09:29:22;;;;;;;6.50;1.40;;;;;;;11.90;100.00;101477.34;4962368;28;20050;-91
2022/09/18 09:31:53;;;;;;;4.97;1.30;;;;;;;12.15;100.00;101508.94;4981914;28;20121;-89
2022/09/18 09:34:25;;;;;;;6.40;1.55;;;;;;;12.32;100.00;101517.13;4980940;28;20063;-90
2022/09/18 09:36:58;;;;;;;4.50;1.10;;;;;;;12.19;100.00;101484.28;4957111;28;20058;-89
2022/09/18 09:39:38;;;;;;;2.65;1.10;;;;;;;11.87;100.00;101480.03;4964974;28;20050;-90
2022/09/18 09:42:30;;;;;;;7.75;1.17;;;;;;;11.99;100.00;101484.06;4974072;28;20043;-90
2022/09/18 09:45:04;;;;;;;5.35;1.13;;;;;;;11.86;100.00;101441.56;4980772;28;20051;-89
2022/09/18 09:47:51;;;;;;;5.97;1.50;;;;;;;12.41;100.00;101505.47;4953543;28;20079;-90
2022/09/18 09:50:38;;;;;;;;;;;;;;;12.72;100.00;101513.16;4971505;28;20051;-88
2022/09/18 09:53:09;;;;;;;5.82;1.25;;;;;;;12.69;100.00;101521.13;4933774;28;19930;-90
2022/09/18 09:55:46;;;;;;;8.52;1.42;;;;;;;12.24;100.00;101463.16;4981065;28;20133;-90
2022/09/18 09:58:45;;;;;;;4.65;1.30;;;;;;;12.58;100.00;101489.13;4955196;28;20054;-89
2022/09/18 10:01:28;;;;;;;;;;;;;;;13.00;100.00;101521.88;4965747;28;20053;-91
2022/09/18 10:04:31;;;;;;;4.03;1.00;;;;;;;13.27;100.00;101522.66;4974202;28;20009;-89
2022/09/18 10:07:16;;;;;;;4.78;1.20;;;;;;;12.82;100.00;101499.69;4954643;28;20038;-89
2022/09/18 10:09:57;;;;;;;4.65;1.00;;;;;;;12.61;100.00;101507.44;4962870;28;20405;-89
2022/09/18 10:12:31;;;;;;;2.97;1.02;;;;;;;12.62;100.00;101495.13;4980097;28;20046;-90
2022/09/18 10:15:37;;;;;;;2.45;1.20;;;;;;;12.83;100.00;101504.06;4964225;28;20054;-89
2022/09/18 10:18:38;;;;;;;4.90;1.42;;;;;;;12.85;100.00;101496.97;4979090;28;20054;-91
2022/09/18 10:21:11;;;;;;;7.90;1.48;;;;;;;13.17;100.00;101476.56;4944489;29;20564;-89
2022/09/18 10:23:42;;;;;;;4.38;1.23;;;;;;;13.20;100.00;101529.91;4961108;28;20057;-89
2022/09/18 10:26:25;;;;;;;2.45;1.02;;;;;;;12.84;100.00;101467.22;4964768;28;20485;-90
2022/09/18 10:28:55;;;;;;;4.57;1.10;;;;;;;13.44;100.00;101506.31;4965640;28;20050;-88
2022/09/18 10:31:21;;;;;;;5.20;1.10;;;;;;;13.55;100.00;101511.16;4970822;28;20103;-90
2022/09/18 10:33:51;;;;;;;4.38;1.20;;;;;;;13.47;100.00;101535.97;4946986;29;20055;-88
2022/09/18 10:36:18;;;;;;;4.13;1.05;;;;;;;13.50;100.00;101542.88;4954457;28;20448;-88
2022/09/18 10:38:46;;;;;;;8.05;1.30;;;;;;;13.08;100.00;101481.25;4958867;28;20054;-89
2022/09/18 10:41:32;;;;;;;3.97;1.05;;;;;;;13.47;100.00;101533.34;4953778;28;20055;-89
2022/09/18 10:44:11;;;;;;;6.82;1.40;;;;;;;13.57;100.00;101541.75;4984634;28;20047;-89
2022/09/18 10:46:49;;;;;;;7.60;1.65;;;;;;;13.38;100.00;101515.25;4963137;28;20061;-90
2022/09/18 10:49:24;;;;;;;6.47;1.20;;;;;;;13.30;100.00;101552.31;4949538;29;20058;-89
2022/09/18 10:52:18;;;;;;;4.65;1.38;;;;;;;13.45;100.00;101550.09;4964112;28;20478;-88
2022/09/18 10:54:57;;;;;;;8.02;1.30;;;;;;;13.72;100.00;101552.59;4979904;28;20051;-88
2022/09/18 10:57:33;;;;;;;6.05;1.38;;;;;;;13.50;100.00;101552.56;4954521;28;20050;-90
2022/09/18 11:00:07;;;;;;;7.68;1.55;;;;;;;13.54;100.00;101523.44;4976170;28;20062;-89
2022/09/18 11:02:43;;;;;;;6.88;1.60;;;;;;;13.91;100.00;101547.50;4947198;28;20077;-90
2022/09/18 11:05:19;;;;;;;5.18;1.38;;;;;;;14.03;100.00;101520.69;4965563;28;20054;-90
2022/09/18 11:07:48;;;;;;;3.35;1.20;;;;;;;13.42;100.00;101516.88;4965470;28;20055;-90
2022/09/18 11:10:25;;;;;;;5.97;1.38;;;;;;;13.73;100.00;101555.19;4950726;29;20066;-90
2022/09/18 11:12:56;;;;;;;5.22;1.55;;;;;;;13.39;100.00;101524.03;4976332;28;20047;-90
2022/09/18 11:15:27;;;;;;;4.35;1.20;;;;;;;13.59;100.00;101547.81;4965175;28;20489;-91
2022/09/18 11:17:55;;;;;;;3.60;1.27;;;;;;;13.74;100.00;101525.31;4965749;28;20477;-90
2022/09/18 11:20:29;;;;;;;6.28;1.33;;;;;;;13.75;100.00;101526.19;4980199;28;20046;-90
2022/09/18 11:23:18;;;;;;;3.38;1.13;;;;;;;13.88;100.00;101553.72;4967030;28;20468;-91
2022/09/18 11:25:46;;;;;;;3.70;1.27;;;;;;;13.97;100.00;101510.38;4952486;28;20066;-90
2022/09/18 11:28:30;;;;;;;3.67;1.17;;;;;;;13.91;100.00;101536.97;4966122;28;20053;-91
2022/09/18 11:31:13;;;;;;;3.78;1.23;;;;;;;13.84;100.00;101563.50;4973872;28;20050;-92
2022/09/18 11:35:03;;;;;;;4.18;1.10;;;;;;;13.71;100.00;101559.66;4951280;28;20077;-91
2022/09/18 11:38:15;;;;;;;5.40;1.35;;;;;;;13.30;100.00;101548.84;4898054;29;20056;-90
2022/09/18 11:41:03;;;;;;;7.63;1.70;;;;;;;12.99;100.00;101504.38;4913250;28;20104;-91
2022/09/18 11:43:43;;;;;;;8.10;1.30;;;;;;;12.83;100.00;101515.41;4967815;28;20049;-92
2022/09/18 11:47:03;;;;;;;5.07;1.45;;;;;;;13.29;100.00;101589.19;4963808;28;20050;-92
2022/09/18 11:49:48;;;;;;;6.88;1.20;;;;;;;13.29;100.00;101562.91;4978375;28;20050;-91
2022/09/18 11:52:25;;;;;;;4.28;1.20;;;;;;;13.38;100.00;101577.53;4965257;28;20054;-91